createdAt,value
2019-04-25T00:02:13.930Z,91.83
2019-04-25T00:04:42.348Z,90.62
2019-04-25T00:07:07.371Z,90.93
2019-04-25T00:09:40.307Z,91.25
2019-04-25T00:12:06.609Z,90.27
2019-04-25T00:14:33.329Z,89.37
2019-04-25T00:17:01.622Z,86.98
2019-04-25T00:19:26.810Z,86.63
2019-04-25T00:22:02.011Z,89.31
2019-04-25T00:24:34.105Z,88.59
2019-04-25T00:27:02.211Z,90.53
2019-04-25T00:29:27.594Z,93.88
2019-04-25T00:31:54.335Z,90.87
2019-04-25T00:34:21.844Z,92.35
2019-04-25T00:36:48.656Z,92.79
2019-04-25T00:39:14.530Z,92.25
2019-04-25T00:41:44.106Z,93.02
2019-04-25T00:44:08.002Z,92.66
2019-04-25T00:46:34.759Z,92.09
2019-04-25T00:49:02.537Z,91.30
2019-04-25T00:51:28.239Z,91.67
2019-04-25T00:53:54.961Z,91.94
2019-04-25T00:56:22.380Z,93.04
2019-04-25T00:59:08.082Z,92.84
2019-04-25T01:01:45.600Z,92.88
2019-04-25T01:04:10.025Z,93.14
2019-04-25T01:06:36.734Z,95.18
2019-04-25T01:09:05.494Z,94.92
2019-04-25T01:11:32.205Z,95.63
2019-04-25T01:13:58.937Z,94.76
2019-04-25T01:16:25.653Z,94.25
2019-04-25T01:18:54.803Z,93.55
2019-04-25T01:21:20.787Z,93.81
2019-04-25T01:23:47.537Z,92.69
2019-04-25T01:26:14.294Z,91.51
2019-04-25T01:28:41.051Z,92.96
2019-04-25T01:31:08.880Z,93.33
2019-04-25T01:33:35.625Z,94.17
2019-04-25T01:36:08.402Z,92.00
2019-04-25T01:38:45.602Z,94.57
2019-04-25T01:41:18.062Z,95.91
2019-04-25T01:43:52.825Z,96.36
2019-04-25T01:46:16.410Z,96.09
2019-04-25T01:48:43.391Z,97.43
2019-04-25T01:51:09.874Z,97.27
2019-04-25T01:53:36.629Z,97.61
2019-04-25T01:56:07.523Z,99.23
2019-04-25T01:58:30.112Z,99.37
2019-04-25T02:00:57.336Z,99.24
2019-04-25T02:03:27.001Z,98.96
2019-04-25T02:05:51.300Z,98.96
2019-04-25T02:08:17.045Z,99.02
2019-04-25T02:10:44.167Z,98.00
2019-04-25T02:13:11.326Z,99.62
2019-04-25T02:15:38.042Z,99.11
2019-04-25T02:18:04.791Z,98.51
2019-04-25T02:20:31.518Z,98.38
2019-04-25T02:22:58.274Z,96.72
2019-04-25T02:25:24.986Z,95.42
2019-04-25T02:27:52.720Z,97.54
2019-04-25T02:30:18.470Z,96.66
2019-04-25T02:32:45.226Z,97.14
2019-04-25T02:35:11.974Z,94.77
2019-04-25T02:37:38.682Z,92.92
2019-04-25T02:40:07.888Z,95.79
2019-04-25T02:42:34.385Z,96.27
2019-04-25T02:45:11.110Z,95.99
2019-04-25T02:47:58.114Z,95.86
2019-04-25T02:50:34.372Z,92.69
2019-04-25T02:53:14.001Z,93.59
2019-04-25T02:55:38.826Z,94.01
2019-04-25T02:58:10.057Z,93.20
2019-04-25T03:00:47.643Z,93.52
2019-04-25T03:02:59.202Z,93.62
2019-04-25T03:05:25.772Z,93.58
2019-04-25T03:07:54.531Z,94.49
2019-04-25T03:10:19.247Z,94.55
2019-04-25T03:12:45.964Z,94.18
2019-04-25T03:15:14.475Z,93.55
2019-04-25T03:17:39.456Z,94.24
2019-04-25T03:20:15.706Z,93.61
2019-04-25T03:22:44.367Z,93.44
2019-04-25T03:25:13.086Z,92.66
2019-04-25T03:27:36.021Z,92.17
2019-04-25T03:30:04.419Z,92.42
2019-04-25T03:32:29.940Z,91.47
2019-04-25T03:34:56.686Z,92.07
2019-04-25T03:37:23.484Z,91.46
2019-04-25T03:39:50.142Z,93.09
2019-04-25T03:42:16.873Z,93.78
2019-04-25T03:44:43.884Z,93.85
2019-04-25T03:47:10.338Z,94.83
2019-04-25T03:49:37.081Z,97.17
2019-04-25T03:52:05.230Z,96.79
2019-04-25T03:54:30.621Z,95.37
2019-04-25T03:56:57.350Z,96.29
2019-04-25T03:59:24.100Z,96.50
2019-04-25T04:01:50.830Z,94.28
2019-04-25T04:04:17.574Z,93.90
2019-04-25T04:06:44.406Z,95.34
2019-04-25T04:09:11.836Z,96.67
2019-04-25T04:11:37.870Z,94.44
2019-04-25T04:14:05.760Z,94.04
2019-04-25T04:16:34.278Z,95.84
2019-04-25T04:19:01.278Z,97.78
2019-04-25T04:21:38.610Z,98.86
2019-04-25T04:24:25.488Z,99.30
2019-04-25T04:27:09.144Z,99.90
2019-04-25T04:29:34.218Z,99.04
2019-04-25T04:32:00.940Z,98.52
2019-04-25T04:34:27.698Z,96.68
2019-04-25T04:36:54.430Z,95.50
2019-04-25T04:39:21.158Z,94.69
2019-04-25T04:41:47.926Z,92.86
2019-04-25T04:44:15.630Z,91.89
2019-04-25T04:46:41.397Z,91.58
2019-04-25T04:49:08.776Z,91.93
2019-04-25T04:51:34.859Z,91.86
2019-04-25T04:54:03.302Z,89.14
2019-04-25T04:56:28.299Z,88.72
2019-04-25T04:58:55.014Z,87.03
2019-04-25T05:01:21.745Z,86.01
2019-04-25T05:03:54.730Z,84.81
2019-04-25T05:06:29.185Z,85.38
2019-04-25T05:09:03.315Z,85.54
2019-04-25T05:11:28.733Z,86.23
2019-04-25T05:13:55.462Z,89.12
2019-04-25T05:16:23.693Z,90.13
2019-04-25T05:18:48.917Z,90.19
2019-04-25T05:21:16.253Z,90.25
2019-04-25T05:23:44.024Z,88.12
2019-04-25T05:26:09.182Z,87.17
2019-04-25T05:28:35.897Z,86.91
2019-04-25T05:31:10.737Z,86.26
2019-04-25T05:33:37.453Z,84.02
2019-04-25T05:36:05.925Z,85.47
2019-04-25T05:38:30.917Z,84.19
2019-04-25T05:41:03.865Z,83.09
2019-04-25T05:43:28.830Z,79.89
2019-04-25T05:45:55.570Z,79.61
2019-04-25T05:48:23.606Z,80.03
2019-04-25T05:50:49.041Z,80.79
2019-04-25T05:53:16.310Z,81.30
2019-04-25T05:55:44.035Z,82.54
2019-04-25T05:58:09.222Z,82.82
2019-04-25T06:00:36.077Z,81.54
2019-04-25T06:03:03.627Z,81.84
2019-04-25T06:05:29.786Z,80.51
2019-04-25T06:07:56.518Z,79.33
2019-04-25T06:10:31.542Z,78.14
2019-04-25T06:13:03.994Z,76.70
2019-04-25T06:15:30.742Z,75.51
2019-04-25T06:18:11.486Z,75.33
2019-04-25T06:20:38.215Z,77.28
2019-04-25T06:23:10.734Z,78.40
2019-04-25T06:25:39.828Z,78.65
2019-04-25T06:28:04.818Z,80.79
2019-04-25T06:30:31.726Z,79.56
2019-04-25T06:32:58.767Z,79.47
2019-04-25T06:35:27.470Z,77.96
2019-04-25T06:37:53.681Z,80.41
2019-04-25T06:40:20.518Z,80.25
2019-04-25T06:42:46.794Z,79.23
2019-04-25T06:45:34.421Z,79.19
2019-04-25T06:48:09.401Z,78.45
2019-04-25T06:50:36.127Z,77.64
2019-04-25T06:53:03.519Z,77.66
2019-04-25T06:55:30.239Z,78.87
2019-04-25T06:58:08.717Z,78.46
2019-04-25T07:00:24.950Z,81.76
2019-04-25T07:02:49.882Z,80.26
2019-04-25T07:05:26.532Z,80.05
2019-04-25T07:07:45.290Z,76.99
2019-04-25T07:10:10.219Z,78.99
2019-04-25T07:12:37.097Z,81.12
2019-04-25T07:15:04.117Z,79.79
2019-04-25T07:17:30.866Z,80.56
2019-04-25T07:19:57.621Z,78.96
2019-04-25T07:22:25.637Z,77.80
2019-04-25T07:24:51.074Z,73.85
2019-04-25T07:27:39.378Z,74.22
2019-04-25T07:30:13.527Z,74.77
2019-04-25T07:32:43.996Z,74.51
2019-04-25T07:35:10.016Z,71.01
2019-04-25T07:37:39.060Z,71.06
2019-04-25T07:40:04.725Z,70.71
2019-04-25T07:42:31.832Z,69.77
2019-04-25T07:44:58.287Z,67.07
2019-04-25T07:47:26.042Z,65.45
2019-04-25T07:49:51.677Z,64.53
2019-04-25T07:52:18.414Z,64.54
2019-04-25T07:54:45.122Z,64.61
2019-04-25T07:57:13.491Z,61.47
2019-04-25T07:59:38.818Z,61.59
2019-04-25T08:02:05.314Z,59.42
2019-04-25T08:04:32.053Z,62.40
2019-04-25T08:06:58.765Z,63.39
2019-04-25T08:09:25.517Z,62.45
2019-04-25T08:11:53.202Z,65.10
2019-04-25T08:14:38.592Z,62.56
2019-04-25T08:17:05.577Z,64.40
2019-04-25T08:19:33.508Z,64.36
2019-04-25T08:21:59.130Z,62.65
2019-04-25T08:24:26.861Z,64.35
2019-04-25T08:26:53.611Z,65.67
2019-04-25T08:29:22.987Z,65.26
2019-04-25T08:31:47.767Z,65.11
2019-04-25T08:34:14.674Z,63.92
2019-04-25T08:36:41.507Z,66.14
2019-04-25T08:39:08.587Z,67.50
2019-04-25T08:41:36.067Z,68.51
2019-04-25T08:44:02.047Z,63.28
2019-04-25T08:46:28.782Z,61.64
2019-04-25T08:49:06.152Z,58.73
2019-04-25T08:51:33.903Z,56.61
2019-04-25T08:54:03.808Z,56.78
2019-04-25T08:56:31.880Z,54.27
2019-04-25T08:59:17.197Z,55.37
2019-04-25T09:01:48.501Z,51.98
2019-04-25T09:04:25.462Z,53.93
2019-04-25T09:06:50.659Z,53.86
2019-04-25T09:09:17.377Z,55.20
2019-04-25T09:11:46.696Z,53.62
2019-04-25T09:14:10.834Z,53.74
2019-04-25T09:16:37.897Z,52.30
2019-04-25T09:19:05.542Z,52.79
2019-04-25T09:21:34.133Z,51.84
2019-04-25T09:23:59.069Z,54.25
2019-04-25T09:26:25.881Z,52.91
2019-04-25T09:28:53.628Z,50.72
2019-04-25T09:31:19.337Z,51.43
2019-04-25T09:33:46.752Z,49.61
2019-04-25T09:36:14.143Z,53.24
2019-04-25T09:38:39.570Z,51.00
2019-04-25T09:41:06.298Z,50.66
2019-04-25T09:43:33.486Z,49.94
2019-04-25T09:46:06.477Z,49.81
2019-04-25T09:48:54.253Z,50.04
2019-04-25T09:51:24.342Z,50.19
2019-04-25T09:53:55.594Z,49.67
2019-04-25T09:56:27.856Z,49.21
2019-04-25T09:58:57.765Z,49.21
2019-04-25T10:01:24.858Z,49.77
2019-04-25T10:03:51.627Z,45.97
2019-04-25T10:06:18.359Z,46.88
2019-04-25T10:08:46.028Z,44.72
2019-04-25T10:11:11.826Z,47.77
2019-04-25T10:13:38.594Z,46.78
2019-04-25T10:16:06.310Z,48.17
2019-04-25T10:18:33.541Z,47.29
2019-04-25T10:20:59.900Z,48.53
2019-04-25T10:23:26.649Z,45.23
2019-04-25T10:25:53.745Z,46.44
2019-04-25T10:28:20.135Z,45.07
2019-04-25T10:30:46.938Z,47.78
2019-04-25T10:33:14.230Z,45.95
2019-04-25T10:35:48.021Z,46.99
2019-04-25T10:38:07.105Z,46.56
2019-04-25T10:40:33.915Z,45.16
2019-04-25T10:43:00.598Z,47.45
2019-04-25T10:45:27.335Z,46.17
2019-04-25T10:47:55.247Z,47.77
2019-04-25T10:50:20.870Z,47.58
2019-04-25T10:52:48.362Z,47.89
2019-04-25T10:55:14.358Z,46.46
2019-04-25T10:57:41.090Z,47.99
2019-04-25T11:00:09.661Z,47.76
2019-04-25T11:02:36.018Z,47.91
2019-04-25T11:05:07.238Z,49.13
2019-04-25T11:07:34.074Z,47.75
2019-04-25T11:10:00.729Z,46.77
2019-04-25T11:12:27.478Z,47.17
2019-04-25T11:14:56.116Z,48.81
2019-04-25T11:17:20.958Z,46.09
2019-04-25T11:19:47.715Z,44.62
2019-04-25T11:22:15.596Z,45.66
2019-04-25T11:24:41.636Z,44.55
2019-04-25T11:27:07.922Z,45.66
2019-04-25T11:29:34.674Z,45.15
2019-04-25T11:32:01.420Z,44.60
2019-04-25T11:34:28.198Z,44.66
2019-04-25T11:36:55.013Z,43.90
2019-04-25T11:39:25.345Z,41.53
2019-04-25T11:41:52.073Z,43.96
2019-04-25T11:44:19.382Z,43.67
2019-04-25T11:46:46.607Z,43.62
2019-04-25T11:49:13.110Z,43.40
2019-04-25T11:51:39.150Z,42.57
2019-04-25T11:54:05.890Z,42.82
2019-04-25T11:56:34.211Z,43.50
2019-04-25T11:58:59.354Z,43.19
2019-04-25T12:01:26.090Z,44.34
2019-04-25T12:03:52.826Z,46.43
2019-04-25T12:06:19.565Z,43.13
2019-04-25T12:08:47.530Z,41.80
2019-04-25T12:11:13.889Z,43.53
2019-04-25T12:13:39.783Z,43.11
2019-04-25T12:16:06.527Z,41.26
2019-04-25T12:18:33.910Z,41.87
2019-04-25T12:20:59.991Z,43.04
2019-04-25T12:23:26.710Z,41.94
2019-04-25T12:25:54.376Z,40.78
2019-04-25T12:28:20.195Z,39.10
2019-04-25T12:30:47.429Z,41.50
2019-04-25T12:33:21.190Z,39.92
2019-04-25T12:35:40.506Z,38.95
2019-04-25T12:38:07.220Z,38.64
2019-04-25T12:40:34.319Z,38.45
2019-04-25T12:43:00.687Z,41.12
2019-04-25T12:45:35.699Z,40.82
2019-04-25T12:48:04.080Z,38.07
2019-04-25T12:50:29.314Z,37.24
2019-04-25T12:52:56.112Z,36.57
2019-04-25T12:55:23.947Z,38.72
2019-04-25T12:57:49.538Z,36.79
2019-04-25T13:00:18.682Z,36.81
2019-04-25T13:02:45.406Z,37.54
2019-04-25T13:05:12.147Z,37.38
2019-04-25T13:07:38.922Z,37.41
2019-04-25T13:10:05.752Z,38.56
2019-04-25T13:12:33.239Z,36.37
2019-04-25T13:14:59.171Z,36.86
2019-04-25T13:17:25.907Z,34.56
2019-04-25T13:19:54.047Z,36.46
2019-04-25T13:22:19.415Z,33.94
2019-04-25T13:24:46.142Z,32.93
2019-04-25T13:27:19.565Z,33.84
2019-04-25T13:29:57.267Z,31.95
2019-04-25T13:32:32.510Z,33.95
2019-04-25T13:34:59.530Z,32.71
2019-04-25T13:37:26.274Z,33.75
2019-04-25T13:39:54.100Z,33.64
2019-04-25T13:42:19.760Z,32.36
2019-04-25T13:44:46.490Z,34.25
2019-04-25T13:47:14.051Z,32.33
2019-04-25T13:49:39.962Z,32.79
2019-04-25T13:52:06.792Z,33.54
2019-04-25T13:54:34.809Z,32.89
2019-04-25T13:57:00.266Z,33.29
2019-04-25T13:59:27.004Z,32.30
2019-04-25T14:01:54.184Z,32.25
2019-04-25T14:04:20.978Z,31.73
2019-04-25T14:06:47.742Z,33.47
2019-04-25T14:09:16.658Z,33.19
2019-04-25T14:11:44.128Z,32.52
2019-04-25T14:14:10.170Z,31.37
2019-04-25T14:16:46.857Z,30.89
2019-04-25T14:19:34.833Z,31.89
2019-04-25T14:22:02.020Z,32.23
2019-04-25T14:24:30.754Z,31.11
2019-04-25T14:26:55.497Z,30.30
2019-04-25T14:29:22.413Z,31.41
2019-04-25T14:31:48.983Z,33.04
2019-04-25T14:34:15.705Z,31.59
2019-04-25T14:36:44.206Z,33.91
2019-04-25T14:39:09.190Z,31.96
2019-04-25T14:41:35.919Z,31.60
2019-04-25T14:44:02.635Z,30.80
2019-04-25T14:46:29.936Z,31.21
2019-04-25T14:48:56.122Z,32.11
2019-04-25T14:51:23.000Z,31.39
2019-04-25T14:53:49.642Z,31.90
2019-04-25T14:56:36.007Z,32.00
2019-04-25T14:59:02.726Z,32.17
2019-04-25T15:01:30.143Z,32.23
2019-04-25T15:03:56.206Z,32.40
2019-04-25T15:06:23.387Z,32.39
2019-04-25T15:08:49.677Z,33.41
2019-04-25T15:11:16.429Z,33.17
2019-04-25T15:13:43.146Z,33.45
2019-04-25T15:16:10.008Z,31.85
2019-04-25T15:18:46.572Z,32.39
2019-04-25T15:21:03.478Z,32.49
2019-04-25T15:23:30.202Z,33.44
2019-04-25T15:25:56.946Z,34.34
2019-04-25T15:28:24.485Z,31.86
2019-04-25T15:30:51.166Z,33.07
2019-04-25T15:33:17.136Z,33.96
2019-04-25T15:35:48.399Z,31.73
2019-04-25T15:38:19.864Z,32.96
2019-04-25T15:40:51.702Z,45.88
2019-04-25T15:43:27.692Z,49.21
2019-04-25T15:46:00.126Z,53.83
2019-04-25T15:48:26.854Z,51.16
2019-04-25T15:50:54.237Z,50.59
2019-04-25T15:53:21.003Z,49.13
2019-04-25T15:55:47.745Z,48.67
2019-04-25T15:58:14.490Z,48.20
2019-04-25T16:00:41.258Z,48.40
2019-04-25T16:03:08.006Z,48.58
2019-04-25T16:05:35.595Z,49.99
2019-04-25T16:08:01.783Z,52.29
2019-04-25T16:10:28.508Z,51.53
2019-04-25T16:12:55.261Z,51.29
2019-04-25T16:15:21.981Z,52.86
2019-04-25T16:17:48.730Z,54.40
2019-04-25T16:20:15.614Z,55.05
2019-04-25T16:22:42.361Z,53.98
2019-04-25T16:25:09.098Z,55.47
2019-04-25T16:27:36.604Z,54.23
2019-04-25T16:30:02.802Z,53.20
2019-04-25T16:32:30.362Z,53.07
2019-04-25T16:34:56.307Z,52.45
2019-04-25T16:37:23.042Z,53.16
2019-04-25T16:39:49.786Z,51.96
2019-04-25T16:42:16.531Z,51.39
2019-04-25T16:44:43.290Z,51.17
2019-04-25T16:47:10.033Z,52.04
2019-04-25T16:49:36.958Z,52.78
2019-04-25T16:52:03.508Z,52.33
2019-04-25T16:54:30.429Z,52.77
2019-04-25T16:56:56.999Z,53.00
2019-04-25T16:59:23.754Z,52.58
2019-04-25T17:01:50.507Z,53.11
2019-04-25T17:04:19.818Z,52.97
2019-04-25T17:06:43.991Z,53.69
2019-04-25T17:09:10.751Z,54.26
2019-04-25T17:11:37.721Z,53.84
2019-04-25T17:14:11.275Z,54.73
2019-04-25T17:16:43.762Z,54.28
2019-04-25T17:19:15.257Z,55.26
2019-04-25T17:21:42.784Z,55.72
2019-04-25T17:26:47.982Z,56.18
2019-04-25T17:29:16.762Z,57.41
2019-04-25T17:31:54.075Z,57.97
2019-04-25T17:34:32.089Z,58.21
2019-04-25T17:37:04.545Z,58.71
2019-04-25T17:39:35.452Z,59.54
2019-04-25T17:42:01.562Z,60.13
2019-04-25T17:44:28.301Z,59.73
2019-04-25T17:47:05.795Z,60.87
2019-04-25T17:49:21.790Z,59.99
2019-04-25T17:51:48.654Z,61.04
2019-04-25T17:54:15.389Z,59.73
2019-04-25T17:56:42.985Z,61.05
2019-04-25T17:59:08.863Z,61.00
2019-04-25T18:01:35.993Z,60.77
2019-04-25T18:04:02.434Z,61.51
2019-04-25T18:06:29.286Z,61.59
2019-04-25T18:08:56.021Z,61.76
2019-04-25T18:11:22.841Z,61.41
2019-04-25T18:13:49.586Z,63.04
2019-04-25T18:16:40.315Z,61.65
2019-04-25T18:19:10.267Z,60.61
2019-04-25T18:21:37.016Z,60.79
2019-04-25T18:24:15.428Z,61.55
2019-04-25T18:26:47.497Z,60.36
2019-04-25T18:29:14.679Z,60.75
2019-04-25T18:31:41.602Z,60.30
2019-04-25T18:34:10.264Z,61.05
2019-04-25T18:36:43.838Z,61.21
2019-04-25T18:39:31.143Z,61.62
2019-04-25T18:42:08.002Z,61.99
2019-04-25T18:44:32.326Z,61.48
2019-04-25T18:46:59.062Z,62.30
2019-04-25T18:49:25.786Z,61.47
2019-04-25T18:51:57.603Z,61.10
2019-04-25T18:54:41.149Z,61.12
2019-04-25T18:57:14.538Z,62.01
2019-04-25T18:59:48.224Z,62.99
2019-04-25T19:02:37.533Z,62.81
2019-04-25T19:05:23.633Z,62.09
2019-04-25T19:07:50.395Z,63.86
2019-04-25T19:10:17.130Z,64.27
2019-04-25T19:12:43.891Z,64.18
2019-04-25T19:15:10.611Z,64.56
2019-04-25T19:17:37.342Z,64.13
2019-04-25T19:20:04.122Z,65.15
2019-04-25T19:22:30.842Z,65.57
2019-04-25T19:24:57.645Z,66.02
2019-04-25T19:27:24.418Z,65.98
2019-04-25T19:29:52.558Z,66.75
2019-04-25T19:32:17.910Z,66.11
2019-04-25T19:34:44.677Z,66.22
2019-04-25T19:37:11.382Z,67.39
2019-04-25T19:39:38.450Z,66.74
2019-04-25T19:42:11.966Z,66.81
2019-04-25T19:44:38.695Z,67.61
2019-04-25T19:47:05.434Z,67.53
2019-04-25T19:49:32.150Z,67.83
2019-04-25T19:51:58.905Z,67.01
2019-04-25T19:54:25.630Z,67.22
2019-04-25T19:56:52.390Z,67.13
2019-04-25T19:59:19.350Z,66.70
2019-04-25T20:01:46.063Z,67.54
2019-04-25T20:04:18.585Z,67.18
2019-04-25T20:06:51.605Z,67.20
2019-04-25T20:09:35.250Z,67.34
2019-04-25T20:12:02.058Z,67.42
2019-04-25T20:14:28.774Z,67.72
2019-04-25T20:16:55.497Z,68.03
2019-04-25T20:19:22.242Z,67.75
2019-04-25T20:21:49.971Z,66.00
2019-04-25T20:24:15.898Z,66.89
2019-04-25T20:26:42.614Z,67.38
2019-04-25T20:29:09.370Z,67.88
2019-04-25T20:31:36.143Z,67.57
2019-04-25T20:34:06.017Z,68.16
2019-04-25T20:36:29.634Z,67.94
2019-04-25T20:38:56.364Z,67.17
2019-04-25T20:41:23.078Z,67.10
2019-04-25T20:43:50.707Z,68.40
2019-04-25T20:46:16.546Z,68.08
2019-04-25T20:48:43.278Z,68.63
2019-04-25T20:51:10.012Z,68.37
2019-04-25T20:53:36.746Z,68.83
2019-04-25T20:56:03.466Z,68.11
2019-04-25T20:58:30.205Z,69.26
2019-04-25T21:00:57.798Z,68.64
2019-04-25T21:03:23.684Z,69.27
2019-04-25T21:05:51.020Z,69.56
2019-04-25T21:08:17.532Z,69.02
2019-04-25T21:10:44.355Z,69.67
2019-04-25T21:13:13.502Z,69.41
2019-04-25T21:15:46.986Z,68.77
2019-04-25T21:18:19.281Z,68.71
2019-04-25T21:20:46.010Z,69.05
2019-04-25T21:23:12.750Z,70.42
2019-04-25T21:25:39.473Z,69.98
2019-04-25T21:28:06.277Z,69.87
2019-04-25T21:30:33.062Z,69.99
2019-04-25T21:32:59.779Z,70.74
2019-04-25T21:35:26.548Z,71.44
2019-04-25T21:37:53.578Z,70.66
2019-04-25T21:40:41.774Z,70.57
2019-04-25T21:43:11.745Z,70.89
2019-04-25T21:45:38.610Z,70.25
2019-04-25T21:48:05.333Z,70.06
2019-04-25T21:50:32.114Z,70.02
2019-04-25T21:52:59.154Z,70.67
2019-04-25T21:55:25.583Z,70.17
2019-04-25T21:57:52.294Z,69.37
2019-04-25T22:00:37.098Z,68.92
2019-04-25T22:03:04.597Z,69.59
2019-04-25T22:05:30.595Z,68.40
2019-04-25T22:07:58.293Z,68.86
2019-04-25T22:10:24.073Z,68.69
2019-04-25T22:12:50.815Z,69.01
2019-04-25T22:15:17.549Z,68.18
2019-04-25T22:17:44.270Z,68.89
2019-04-25T22:20:11.018Z,69.05
2019-04-25T22:22:37.741Z,69.04
2019-04-25T22:25:04.696Z,69.03
2019-04-25T22:27:32.052Z,69.62
2019-04-25T22:29:59.958Z,67.54
2019-04-25T22:32:30.786Z,68.96
2019-04-25T22:35:06.070Z,68.84
2019-04-25T22:37:32.805Z,69.43
2019-04-25T22:39:59.872Z,69.94
2019-04-25T22:42:26.284Z,70.86
2019-04-25T22:44:53.038Z,71.66
2019-04-25T22:47:19.778Z,71.14
2019-04-25T22:49:46.525Z,70.54
2019-04-25T22:52:13.245Z,70.46
2019-04-25T22:54:39.990Z,71.08
2019-04-25T22:57:06.710Z,72.13
2019-04-25T22:59:33.423Z,71.42
2019-04-25T23:02:05.438Z,72.83
2019-04-25T23:04:39.737Z,72.21
2019-04-25T23:07:06.506Z,72.52
2019-04-25T23:09:33.296Z,73.10
2019-04-25T23:12:00.054Z,72.73
2019-04-25T23:14:26.786Z,71.48
2019-04-25T23:16:53.538Z,70.35
2019-04-25T23:19:20.258Z,71.92
2019-04-25T23:21:46.998Z,72.86
2019-04-25T23:24:13.989Z,72.57
2019-04-25T23:26:46.318Z,70.97
2019-04-25T23:29:14.583Z,74.13
2019-04-25T23:31:40.866Z,74.56
2019-04-25T23:34:08.723Z,76.80
2019-04-25T23:36:34.365Z,78.17
2019-04-25T23:39:01.090Z,79.74
2019-04-25T23:41:27.831Z,79.76
2019-04-25T23:43:54.547Z,80.65
2019-04-25T23:46:21.337Z,81.44
2019-04-25T23:48:48.077Z,82.56
2019-04-25T23:51:15.356Z,81.83
2019-04-25T23:53:41.556Z,82.18
2019-04-25T23:56:08.936Z,80.59
2019-04-25T23:58:35.035Z,80.04
